aviador You're here:

CYPX Decoded Metar

PUVIRGNITUQ in QC, CANADA
Report Time2017-05-28 06:00:00
UTC Time2017-05-28 06:46:46
Flight Rules vfr VFR
Wind060° at 09 kt
W.Decomp.*RWY 01: 2.9 kt HW 8.5 kt RCW
W.Rank060° ranks 11
Current wind is below 060° avg. (10.4)
Visibility9999 m
Phenomena:N/A
Clouds:N/A
Expected CloudBase > 1,600 ft AGL from Temp-Dew spread
CeilingNone
Temp02°C (ISA -13)
Dew Point-2°C (75% RH)
AAT-3.5°C
QNH1021 hPa
Density Alt-1,690 ft
Elevation75 ft
Report Wrong Elevation
Raw Report
CYPX 280600Z AUTO 06009KT 9SM CLR 02/M02 A3016 RMK SLP217=

Extra information for CYPX:More info

Metar Taf Metar & Taf Last 4 Metars F.Rules Stats Wind Profile Meteogram Temp Stats Airport Information Weather charts Add Link Nearby VenuesMetar ALERT Operation Metar Decoded Social comments